Flight Number: AVA2474 Duration: 1:15
Departure: Dallas/Fort Worth Int`l Airport (KDFW) at 21:45 Distance: 286.339 Nm
Arrival: Wichita Mid Continent Airport (KICT) at 23:00 Equipment: ATR72

Weather Information
DALLAS/FT. WORTH INTERNATIONAL AIRPORT , TX, United States (KDFW) 32-54N 097-02W 174M Oct 22, 2020 - 06:53 AM EDT / 2020.10.22 1053 UTC
Wind: from the S (170 degrees) at 8 MPH (7 KT):0
Visibility: 10 mile(s):0
Sky conditions: clear Temperature: 70.0 F (21.1 C) Dew Point: 66.9 F (19.4 C) Relative Humidity: 90% Pressure (altimeter): 29.95 in. Hg (1014 hPa)
ob: KDFW 221053Z 17007KT 10SM CLR 21/19 A2995 RMK AO2 SLP135 T02110194 cycle: 11
Sunrise: 12:41 Sunset: 23:43 (UTC)

WICHITA MID-CONTINENT AIRPORT , KS, United States (KICT) 37-39N 97-26W 408M Oct 22, 2020 - 06:53 AM EDT / 2020.10.22 1053 UTC
Wind: from the S (170 degrees) at 18 MPH (16 KT):0
Visibility: 10 mile(s):0
Sky conditions: clear Temperature: 66.0 F (18.9 C) Dew Point: 62.1 F (16.7 C) Relative Humidity: 87% Pressure (altimeter): 29.82 in. Hg (1009 hPa)
ob: KICT 221053Z 17016KT 10SM CLR 19/17 A2982 RMK AO2 SLP092 T01890167 cycle: 11
Sunrise: 12:49 Sunset: 23:39 (UTC)

TAF:2020/10/22 12:22 TAF KICT 221120Z 2212/2312 18018G28KT P6SM FEW250 WS020/20045KT FM221500 18025G35KT P6SM SCT250 FM222300 21015G22KT P6SM VCSH SCT050 FM230100 32018G28KT 5SM SHRA BR BKN015 FM230400 36022G32KT 4SM SHRA BR OVC008 FM230700 36022G32KT P6SM OVC015

This route has never been flown.

Route map